Time;durP1;ratioP1;P1;durP2;ratioP2;P2;SDS_P1;SDS_P2;PMS_P1;PMS_P2;Temp;Humidity;BMP_temperature;BMP_pressure;BME280_temperature;BME280_humidity;BME280_pressure;Samples;Min_cycle;Max_cycle;Signal;HPM_P1;HPM_P2
2024/01/19 00:02:23;;;;;;;5.57;5.03;;;;;;;2.39;85.60;94809.88;4970478;28;20220;-86
2024/01/19 00:05:11;;;;;;;7.23;5.63;;;;;;;2.35;86.00;94807.78;4971375;28;20206;-86
2024/01/19 00:07:40;;;;;;;7.77;6.17;;;;;;;2.41;86.69;94832.59;4967808;28;20227;-85
2024/01/19 00:10:07;;;;;;;6.50;5.77;;;;;;;2.44;86.88;94842.47;4986219;28;20262;-86
2024/01/19 00:12:35;;;;;;;7.67;5.80;;;;;;;2.58;87.12;94848.78;4970880;28;20213;-86
2024/01/19 00:15:02;;;;;;;6.43;5.83;;;;;;;2.72;85.89;94827.94;4967878;29;20260;-86
2024/01/19 00:17:29;;;;;;;6.67;5.70;;;;;;;2.66;84.90;94801.38;4968068;29;20201;-85
2024/01/19 00:20:02;;;;;;;6.90;5.70;;;;;;;2.57;84.93;94798.91;4981243;28;20299;-86
2024/01/19 00:22:33;;;;;;;6.77;6.10;;;;;;;2.51;85.32;94813.00;4984642;28;20228;-85
2024/01/19 00:25:02;;;;;;;7.53;6.07;;;;;;;2.50;85.43;94833.50;4987282;28;20207;-86
2024/01/19 00:27:34;;;;;;;7.10;6.40;;;;;;;2.58;85.48;94831.00;4985853;28;20222;-86
2024/01/19 00:30:15;;;;;;;6.50;5.63;;;;;;;2.41;84.97;94804.66;4956756;28;20201;-86
2024/01/19 00:32:44;;;;;;;8.33;5.70;;;;;;;2.41;86.07;94851.19;4953771;29;20248;-85
2024/01/19 00:35:14;;;;;;;6.77;5.53;;;;;;;2.40;85.78;94849.59;4957564;28;20236;-86
2024/01/19 00:37:48;;;;;;;7.77;5.50;;;;;;;2.52;86.45;94869.69;4972561;28;20204;-86
2024/01/19 00:40:20;;;;;;;7.97;6.27;;;;;;;2.49;86.00;94854.75;4972397;28;20211;-86
2024/01/19 00:42:47;;;;;;;6.60;5.20;;;;;;;2.42;85.50;94850.25;4969669;28;20568;-87
2024/01/19 00:45:24;;;;;;;7.50;5.33;;;;;;;2.46;85.72;94858.38;4971250;28;20200;-86
2024/01/19 00:47:53;;;;;;;6.47;5.67;;;;;;;2.53;85.90;94869.53;4971901;28;20319;-86
2024/01/19 00:50:38;;;;;;;5.60;5.00;;;;;;;2.62;85.35;94865.34;4954812;28;20197;-86
2024/01/19 00:53:06;;;;;;;6.40;4.90;;;;;;;2.61;84.68;94854.38;4952693;28;20204;-87
2024/01/19 00:55:35;;;;;;;5.77;5.03;;;;;;;2.60;84.08;94851.97;4958963;28;20710;-85
2024/01/19 00:58:10;;;;;;;6.87;4.47;;;;;;;2.42;83.74;94829.13;4956796;28;20247;-86
2024/01/19 01:00:43;;;;;;;5.77;4.13;;;;;;;2.30;83.48;94836.16;4954754;28;20232;-86
2024/01/19 01:03:22;;;;;;;5.07;4.20;;;;;;;2.26;82.50;94813.75;4955988;28;20201;-87
2024/01/19 01:05:48;;;;;;;4.80;4.30;;;;;;;2.30;82.75;94833.63;4955938;28;20232;-87
2024/01/19 01:08:19;;;;;;;8.53;4.40;;;;;;;2.14;81.82;94792.03;4955192;28;20201;-87
2024/01/19 01:10:49;;;;;;;4.23;3.83;;;;;;;2.15;82.58;94824.09;4955369;28;20740;-87
2024/01/19 01:13:15;;;;;;;6.43;4.17;;;;;;;2.17;82.35;94819.66;4955038;28;20320;-86
2024/01/19 01:15:42;;;;;;;5.90;4.20;;;;;;;2.23;82.47;94817.34;4955024;28;20224;-86
2024/01/19 01:18:10;;;;;;;6.60;3.87;;;;;;;2.32;82.44;94830.91;4955336;28;20201;-85
2024/01/19 01:20:40;;;;;;;4.63;4.17;;;;;;;2.34;82.76;94841.72;4955607;28;20205;-87
2024/01/19 01:23:07;;;;;;;6.70;4.63;;;;;;;2.42;82.11;94836.75;4954909;28;20204;-86
2024/01/19 01:25:39;;;;;;;5.60;4.13;;;;;;;2.42;82.04;94826.59;4954745;28;20285;-86
2024/01/19 01:28:08;;;;;;;5.93;4.33;;;;;;;2.40;82.18;94833.53;4954757;28;20232;-85
2024/01/19 01:30:44;;;;;;;6.00;4.33;;;;;;;2.42;82.24;94845.16;4954427;28;20236;-86
2024/01/19 01:33:11;;;;;;;5.40;4.30;;;;;;;2.39;82.71;94864.97;4954134;28;20630;-86
2024/01/19 01:35:44;;;;;;;6.57;4.57;;;;;;;2.49;82.78;94891.13;4954600;29;20225;-86
2024/01/19 01:38:13;;;;;;;5.53;4.20;;;;;;;2.55;81.95;94861.78;4955229;28;20254;-87
2024/01/19 01:40:45;;;;;;;4.83;4.20;;;;;;;2.58;81.06;94834.34;4955014;28;20228;-88
2024/01/19 01:43:20;;;;;;;5.33;4.10;;;;;;;2.62;80.94;94845.81;4954559;28;20236;-86
2024/01/19 01:45:47;;;;;;;4.47;4.07;;;;;;;2.64;80.12;94826.13;4953789;28;20197;-86
2024/01/19 01:48:14;;;;;;;4.97;4.47;;;;;;;2.63;79.71;94821.19;4953639;28;20197;-86
2024/01/19 01:50:59;;;;;;;5.30;3.87;;;;;;;2.70;80.04;94838.25;4961655;28;20260;-86
2024/01/19 01:53:25;;;;;;;5.50;4.30;;;;;;;2.68;79.85;94830.00;4973230;28;20764;-86
2024/01/19 01:56:00;;;;;;;5.03;3.93;;;;;;;2.67;80.85;94853.00;4966133;28;20244;-86
2024/01/19 01:58:29;;;;;;;5.20;4.00;;;;;;;2.71;80.16;94839.84;4953837;28;20204;-86
2024/01/19 02:00:56;;;;;;;4.40;4.00;;;;;;;2.73;79.89;94826.97;4953887;28;20270;-86
2024/01/19 02:03:26;;;;;;;4.73;4.00;;;;;;;2.77;80.08;94849.44;4953256;28;20215;-86
2024/01/19 02:06:07;;;;;;;5.10;4.00;;;;;;;2.80;79.58;94834.84;4953992;28;20720;-86
2024/01/19 02:08:33;;;;;;;4.47;3.93;;;;;;;2.81;78.92;94826.25;4953823;28;20919;-86
2024/01/19 02:11:04;;;;;;;5.03;3.60;;;;;;;2.77;78.03;94797.78;4952588;28;20217;-86
2024/01/19 02:13:36;;;;;;;4.53;4.13;;;;;;;2.70;78.85;94825.53;4953117;28;20203;-87
2024/01/19 02:16:08;;;;;;;6.47;3.80;;;;;;;2.74;78.78;94823.50;4953179;28;20221;-86
2024/01/19 02:18:43;;;;;;;4.47;3.90;;;;;;;2.67;79.13;94858.09;4953037;28;20284;-86
2024/01/19 02:21:31;;;;;;;5.60;3.77;;;;;;;2.65;78.63;94842.97;4953499;28;20220;-86
2024/01/19 02:24:04;;;;;;;4.50;3.67;;;;;;;2.67;77.91;94813.16;4952961;28;20295;-86
2024/01/19 02:26:38;;;;;;;4.93;4.13;;;;;;;2.67;77.62;94807.25;4953282;28;20209;-86
2024/01/19 02:29:05;;;;;;;5.37;3.90;;;;;;;2.64;77.33;94793.09;4953542;28;20212;-86
2024/01/19 02:31:35;;;;;;;5.10;3.70;;;;;;;2.58;77.53;94810.66;4953260;28;20612;-86
2024/01/19 02:34:02;;;;;;;6.13;3.90;;;;;;;2.55;77.81;94824.47;4953318;28;20205;-87
2024/01/19 02:36:29;;;;;;;5.03;4.00;;;;;;;2.54;77.50;94822.06;4952790;28;20706;-86
2024/01/19 02:39:05;;;;;;;6.50;3.67;;;;;;;2.60;77.38;94812.13;4952677;28;20205;-86
2024/01/19 02:41:33;;;;;;;6.43;4.00;;;;;;;2.62;76.55;94794.19;4953192;28;20682;-87
2024/01/19 02:43:59;;;;;;;6.03;3.90;;;;;;;2.65;76.73;94797.25;4952512;29;20216;-86
2024/01/19 02:46:38;;;;;;;7.20;4.60;;;;;;;2.62;76.89;94806.91;4961729;28;20239;-86
2024/01/19 02:49:08;;;;;;;14.83;7.77;;;;;;;2.43;77.36;94826.44;4960453;28;20228;-87
2024/01/19 02:51:37;;;;;;;7.27;5.27;;;;;;;2.50;78.00;94856.34;4952079;29;20332;-86
2024/01/19 02:54:10;;;;;;;6.77;4.77;;;;;;;2.46;77.06;94842.34;4952436;28;20209;-86
2024/01/19 02:56:43;;;;;;;6.63;4.27;;;;;;;2.42;77.40;94844.34;4965806;28;20227;-86
2024/01/19 02:59:20;;;;;;;5.23;3.93;;;;;;;2.26;76.95;94822.16;4971506;28;20212;-87
2024/01/19 03:01:46;;;;;;;4.57;3.80;;;;;;;2.16;77.57;94846.00;4971639;28;20224;-86
2024/01/19 03:04:15;;;;;;;5.77;3.80;;;;;;;2.17;78.40;94876.31;4971421;28;20287;-86
2024/01/19 03:07:00;;;;;;;6.40;4.27;;;;;;;2.21;78.58;94889.53;4972084;28;20204;-87
2024/01/19 03:09:32;;;;;;;4.20;3.80;;;;;;;2.21;78.06;94884.47;4971689;28;20199;-86
2024/01/19 03:12:05;;;;;;;4.53;3.97;;;;;;;2.23;78.28;94888.47;4971357;28;20240;-86
2024/01/19 03:14:33;;;;;;;5.03;3.83;;;;;;;2.19;78.21;94892.22;4971365;28;20196;-86
2024/01/19 03:17:01;;;;;;;6.20;4.43;;;;;;;2.09;78.17;94894.03;4971142;28;20224;-86
2024/01/19 03:19:33;;;;;;;6.40;4.90;;;;;;;2.15;77.79;94888.38;4971271;28;20208;-86
2024/01/19 03:22:06;;;;;;;5.67;4.60;;;;;;;2.11;78.02;94878.66;4971347;28;20228;-86
2024/01/19 03:24:35;;;;;;;5.70;4.80;;;;;;;2.07;78.38;94908.59;4971504;28;20212;-86
2024/01/19 03:27:03;;;;;;;7.40;5.07;;;;;;;2.17;78.79;94916.94;4971194;28;20203;-87
2024/01/19 03:29:38;;;;;;;10.60;4.87;;;;;;;2.20;77.60;94903.97;4970970;28;20215;-86
2024/01/19 03:32:14;;;;;;;7.23;5.07;;;;;;;2.23;77.79;94908.78;4970958;28;20227;-85
2024/01/19 03:34:47;;;;;;;6.60;4.67;;;;;;;2.19;76.73;94871.09;4971271;28;20215;-86
2024/01/19 03:37:20;;;;;;;8.93;5.00;;;;;;;2.24;76.99;94879.09;4971524;28;20224;-87
2024/01/19 03:39:55;;;;;;;7.63;4.50;;;;;;;2.30;77.13;94898.84;4970621;28;20700;-86
2024/01/19 03:42:29;;;;;;;5.63;4.50;;;;;;;2.35;76.75;94889.84;4970656;28;20219;-86
2024/01/19 03:45:04;;;;;;;7.43;5.00;;;;;;;2.30;76.58;94889.50;4966873;28;20208;-86
2024/01/19 03:47:34;;;;;;;5.97;4.90;;;;;;;2.34;76.44;94879.84;4971390;28;20200;-87
2024/01/19 03:50:10;;;;;;;5.80;4.80;;;;;;;2.38;76.46;94889.56;4956690;28;20204;-86
2024/01/19 03:52:44;;;;;;;7.00;4.70;;;;;;;2.30;76.68;94889.50;4951314;28;20224;-87
2024/01/19 03:55:17;;;;;;;6.17;5.17;;;;;;;2.26;76.30;94884.84;4951403;28;20208;-87
2024/01/19 03:57:51;;;;;;;6.37;5.10;;;;;;;2.24;76.58;94900.22;4951521;29;20239;-86
2024/01/19 04:00:23;;;;;;;8.73;5.10;;;;;;;2.25;76.83;94921.34;4951419;29;20216;-86
2024/01/19 04:02:55;;;;;;;7.30;5.33;;;;;;;2.28;76.66;94918.53;4951545;29;20224;-86
2024/01/19 04:05:29;;;;;;;5.87;5.07;;;;;;;2.23;76.36;94896.09;4951299;29;20201;-86
2024/01/19 04:08:05;;;;;;;7.03;5.13;;;;;;;2.23;75.51;94887.66;4951939;29;20201;-86
2024/01/19 04:10:37;;;;;;;6.53;5.27;;;;;;;2.13;76.38;94905.47;4952878;28;20211;-86
2024/01/19 04:13:05;;;;;;;5.87;4.93;;;;;;;2.17;76.31;94908.53;4970895;28;20215;-87
2024/01/19 04:15:35;;;;;;;7.17;5.30;;;;;;;2.23;76.44;94916.41;4970849;28;20323;-86
2024/01/19 04:18:12;;;;;;;7.10;5.40;;;;;;;2.30;76.31;94916.63;4971378;28;20661;-85
2024/01/19 04:20:45;;;;;;;8.23;5.27;;;;;;;2.25;76.15;94917.06;4970849;28;20203;-86
2024/01/19 04:23:16;;;;;;;7.80;5.53;;;;;;;2.27;75.97;94916.91;4971000;28;20272;-86
2024/01/19 04:25:58;;;;;;;7.13;5.40;;;;;;;2.29;76.43;94915.84;4970869;28;20239;-86
2024/01/19 04:28:28;;;;;;;6.53;5.00;;;;;;;2.22;75.60;94907.19;4975032;28;20275;-86
2024/01/19 04:30:56;;;;;;;8.00;5.40;;;;;;;2.16;75.60;94901.84;4987352;28;20216;-86
2024/01/19 04:33:22;;;;;;;7.07;5.47;;;;;;;2.10;75.32;94890.56;4987949;28;20574;-87
2024/01/19 04:35:49;;;;;;;7.03;5.53;;;;;;;2.05;76.16;94905.41;4988657;28;20594;-86
2024/01/19 04:38:20;;;;;;;7.60;5.57;;;;;;;2.06;75.70;94900.19;4985579;28;20200;-85
2024/01/19 04:41:06;;;;;;;8.43;5.43;;;;;;;2.01;75.72;94906.63;4965502;28;20216;-85
2024/01/19 04:43:37;;;;;;;7.13;5.60;;;;;;;2.03;76.29;94932.66;4962791;28;20263;-86
2024/01/19 04:46:04;;;;;;;6.97;5.37;;;;;;;2.00;76.00;94915.97;4974235;28;20295;-86
2024/01/19 04:48:30;;;;;;;6.20;5.27;;;;;;;2.03;75.71;94915.69;4972941;28;20200;-86
2024/01/19 04:50:57;;;;;;;7.70;5.67;;;;;;;2.05;75.72;94910.47;4966195;28;20239;-87
2024/01/19 04:53:26;;;;;;;8.70;5.80;;;;;;;2.02;75.53;94908.22;4964961;28;20809;-87
2024/01/19 04:56:05;;;;;;;6.93;5.80;;;;;;;2.04;75.48;94909.69;4961994;28;20200;-87
2024/01/19 04:58:58;;;;;;;7.87;5.73;;;;;;;2.00;75.31;94918.50;4953713;28;20252;-87
2024/01/19 05:01:31;;;;;;;8.37;5.33;;;;;;;1.98;75.58;94915.31;4952824;29;20252;-87
2024/01/19 05:04:02;;;;;;;8.77;6.00;;;;;;;2.01;75.63;94927.72;4954517;28;20201;-87
2024/01/19 05:06:34;;;;;;;7.00;6.13;;;;;;;2.06;75.53;94919.69;4953283;28;20216;-87
2024/01/19 05:12:31;;;;;;;7.40;5.83;;;;;;;2.00;75.91;94938.00;4953650;28;20347;-87
2024/01/19 05:15:30;;;;;;;9.37;5.60;;;;;;;1.97;75.52;94941.63;4965315;28;20662;-87
2024/01/19 05:20:40;;;;;;;7.10;6.03;;;;;;;1.96;75.47;94944.31;4971141;28;20312;-87
2024/01/19 05:23:11;;;;;;;8.93;6.47;;;;;;;1.92;75.35;94932.84;4966975;28;20209;-85
2024/01/19 05:25:46;;;;;;;8.60;6.43;;;;;;;1.92;75.05;94928.59;4952550;28;20223;-86
2024/01/19 05:28:15;;;;;;;7.80;6.07;;;;;;;1.90;75.27;94934.72;4953947;28;20209;-89
2024/01/19 05:30:42;;;;;;;11.17;6.23;;;;;;;2.10;89.16;95260.44;4972896;28;20231;-85
2024/01/19 05:33:19;;;;;;;10.73;6.93;;;;;;;2.14;79.01;95028.16;4964715;28;20207;-87
2024/01/19 05:35:46;;;;;;;11.80;6.83;;;;;;;2.15;76.66;94958.66;4956638;28;20200;-86
2024/01/19 05:38:16;;;;;;;8.03;6.13;;;;;;;2.12;76.13;94944.50;4961190;28;20212;-86
2024/01/19 05:43:44;;;;;;;9.50;6.53;;;;;;;2.02;74.99;94916.63;4956338;28;20738;-86
2024/01/19 05:46:12;;;;;;;9.63;6.30;;;;;;;2.01;74.88;94904.88;4960734;28;20204;-86
2024/01/19 05:48:43;;;;;;;7.80;6.70;;;;;;;1.93;75.39;94926.81;4961761;28;20204;-86
2024/01/19 05:51:14;;;;;;;7.60;6.40;;;;;;;1.96;75.24;94936.69;4958317;28;20256;-84
2024/01/19 05:53:43;;;;;;;9.13;6.53;;;;;;;1.96;75.32;94929.88;4962001;28;20201;-86
2024/01/19 05:56:13;;;;;;;7.97;6.77;;;;;;;1.98;74.93;94928.00;4963941;28;20208;-84
2024/01/19 05:58:39;;;;;;;9.63;6.60;;;;;;;1.99;74.63;94921.19;4963609;28;20205;-86
2024/01/19 06:01:21;;;;;;;7.77;6.60;;;;;;;2.00;74.25;94910.91;4964643;28;20217;-86
2024/01/19 06:03:49;;;;;;;9.40;6.63;;;;;;;1.97;74.40;94916.25;4963292;28;20204;-86
2024/01/19 06:06:16;;;;;;;8.27;6.43;;;;;;;1.94;74.52;94925.88;4963001;28;20215;-85
2024/01/19 06:08:48;;;;;;;10.17;7.47;;;;;;;1.97;74.69;94939.09;4965418;28;20193;-86
2024/01/19 06:11:14;;;;;;;8.37;7.20;;;;;;;1.97;74.27;94928.94;4958754;28;20223;-86
2024/01/19 06:13:41;;;;;;;7.83;6.60;;;;;;;1.91;74.57;94937.13;4959453;28;20200;-87
2024/01/19 06:19:02;;;;;;;9.03;6.97;;;;;;;1.93;74.61;94967.41;4962852;28;20201;-86
2024/01/19 06:21:54;;;;;;;8.87;7.00;;;;;;;1.96;74.61;94969.69;4984382;28;20220;-86
2024/01/19 06:24:26;;;;;;;11.30;7.47;;;;;;;1.91;74.38;94967.59;4982835;28;20197;-85
2024/01/19 06:26:53;;;;;;;9.80;7.50;;;;;;;1.90;74.70;94980.41;4985137;28;20224;-85
2024/01/19 06:29:20;;;;;;;9.90;7.03;;;;;;;1.92;74.18;94966.66;4975219;28;20196;-86
2024/01/19 06:31:50;;;;;;;11.10;6.97;;;;;;;1.94;74.21;94976.63;4970684;28;20227;-86
2024/01/19 06:34:32;;;;;;;7.97;6.53;;;;;;;1.91;74.14;94976.94;4960490;28;20221;-86
2024/01/19 06:36:58;;;;;;;8.93;6.00;;;;;;;1.91;73.73;94961.72;4972326;28;20645;-86
2024/01/19 06:39:26;;;;;;;9.27;6.50;;;;;;;1.87;74.45;94985.75;4972161;28;20208;-86
2024/01/19 06:41:57;;;;;;;8.47;6.80;;;;;;;1.81;74.35;94986.31;4968012;28;20220;-87
2024/01/19 06:50:09;;;;;;;8.70;6.63;;;;;;;1.69;77.52;95123.50;4949538;28;20236;-87
2024/01/19 06:52:36;;;;;;;12.90;8.07;;;;;;;1.68;82.79;95279.22;5014527;23;20242;-86
2024/01/19 06:55:06;;;;;;;15.67;10.67;;;;;;;1.70;77.85;95155.53;5001299;28;20192;-86
2024/01/19 06:57:36;;;;;;;14.80;10.90;;;;;;;1.67;76.19;95078.88;4991142;28;20223;-87
2024/01/19 07:00:24;;;;;;;13.07;9.27;;;;;;;1.66;75.68;95067.94;5002739;28;20222;-87
2024/01/19 07:02:50;;;;;;;11.03;7.37;;;;;;;1.74;75.70;95074.84;4951600;28;20239;-87
2024/01/19 07:05:19;;;;;;;9.07;6.97;;;;;;;1.80;74.97;95063.38;4974833;28;20568;-86
2024/01/19 07:13:21;;;;;;;8.27;6.90;;;;;;;1.83;74.54;95058.84;4968793;28;20271;-87
2024/01/19 07:15:50;;;;;;;9.00;6.40;;;;;;;1.83;73.91;95045.34;4971914;28;20200;-86
2024/01/19 07:18:20;;;;;;;11.23;7.40;;;;;;;1.78;74.03;95050.00;4971492;28;20224;-86
2024/01/19 07:21:15;;;;;;;8.60;6.93;;;;;;;1.80;74.21;95064.19;4969676;28;20291;-87
2024/01/19 07:23:41;;;;;;;8.73;6.50;;;;;;;1.82;73.71;95054.69;4971899;28;20561;-86
2024/01/19 07:26:24;;;;;;;8.97;6.30;;;;;;;1.82;73.50;95052.16;4980373;28;20205;-85
2024/01/19 07:28:54;;;;;;;8.77;6.63;;;;;;;1.80;73.72;95061.63;4971939;28;20196;-86
2024/01/19 07:31:20;;;;;;;8.43;6.20;;;;;;;1.83;74.08;95088.47;4971246;28;20226;-85
2024/01/19 07:33:55;;;;;;;8.47;6.60;;;;;;;1.89;74.16;95095.56;4971638;28;20204;-87
2024/01/19 07:36:23;;;;;;;7.83;6.20;;;;;;;1.85;73.77;95086.63;4983863;28;20191;-85
2024/01/19 07:38:50;;;;;;;20.70;13.30;;;;;;;1.82;74.12;95105.44;4971458;28;20287;-86
2024/01/19 07:41:20;;;;;;;16.67;11.03;;;;;;;1.75;73.73;95089.16;4970974;28;20303;-85
2024/01/19 07:43:46;;;;;;;10.13;7.30;;;;;;;1.80;73.67;95097.16;4985155;28;20278;-86
2024/01/19 07:46:33;;;;;;;7.67;6.30;;;;;;;1.89;73.66;95109.06;4974667;28;20230;-86
2024/01/19 07:49:00;;;;;;;8.07;6.10;;;;;;;1.94;73.43;95103.56;4976111;28;20582;-86
2024/01/19 07:51:33;;;;;;;9.13;6.20;;;;;;;2.01;72.44;95081.78;4985648;28;20231;-86
2024/01/19 07:54:37;;;;;;;6.77;5.73;;;;;;;1.97;72.42;95057.59;4975030;28;20291;-86
2024/01/19 07:57:41;;;;;;;7.77;6.20;;;;;;;1.98;72.55;95084.59;4956109;28;20207;-86
2024/01/19 08:00:32;;;;;;;7.57;6.23;;;;;;;2.01;72.47;95081.78;4962727;28;20659;-84
2024/01/19 08:03:41;;;;;;;6.10;5.13;;;;;;;2.01;72.02;95069.09;4980244;28;20226;-87
2024/01/19 08:10:53;;;;;;;7.67;5.80;;;;;;;1.97;72.02;95093.94;4911787;29;20202;-86
2024/01/19 08:16:13;;;;;;;6.37;5.40;;;;;;;1.80;72.73;95120.00;4946600;29;20288;-88
2024/01/19 08:18:53;;;;;;;7.93;5.87;;;;;;;1.85;72.56;95137.38;4944171;29;20228;-88
2024/01/19 08:25:23;;;;;;;10.67;7.93;;;;;;;1.91;71.38;95094.50;4979470;28;20215;-87
2024/01/19 08:27:49;;;;;;;7.60;5.80;;;;;;;1.81;71.85;95103.03;4917890;28;20201;-83
2024/01/19 08:30:33;;;;;;;8.03;5.97;;;;;;;1.73;71.42;95093.59;4964663;28;20197;-88
2024/01/19 08:33:46;;;;;;;6.03;4.80;;;;;;;1.83;72.18;95124.00;4974656;28;20224;-89
2024/01/19 08:36:45;;;;;;;7.97;5.40;;;;;;;1.83;71.48;95107.06;4884476;29;20325;-88
2024/01/19 08:42:59;;;;;;;8.57;5.47;;;;;;;1.87;70.74;95088.09;4910490;28;20243;-88
2024/01/19 08:49:29;;;;;;;6.80;5.47;;;;;;;2.05;71.47;95122.00;4806732;29;20208;-88
2024/01/19 09:04:39;;;;;;;10.03;6.67;;;;;;;2.07;69.96;95091.41;4958070;28;20255;-87
2024/01/19 09:07:47;;;;;;;10.07;6.73;;;;;;;2.13;70.55;95110.34;4980791;28;20196;-88
2024/01/19 09:10:20;;;;;;;9.37;7.27;;;;;;;2.17;70.02;95104.06;4984120;28;20303;-88
2024/01/19 09:12:59;;;;;;;11.67;7.97;;;;;;;2.13;69.52;95087.47;4957669;28;20243;-88
2024/01/19 09:15:27;;;;;;;8.50;6.87;;;;;;;2.19;69.77;95099.66;4971948;28;20220;-89
2024/01/19 09:20:38;;;;;;;8.07;7.07;;;;;;;2.22;70.56;95145.09;4964589;28;20212;-88
2024/01/19 09:23:21;;;;;;;9.77;7.33;;;;;;;2.25;69.71;95114.34;4972656;28;20287;-87
2024/01/19 09:26:04;;;;;;;9.93;6.83;;;;;;;2.28;70.09;95124.22;4977467;28;20192;-88
2024/01/19 09:29:04;;;;;;;9.27;6.50;;;;;;;2.31;69.97;95127.28;4983043;28;20222;-88
2024/01/19 09:32:15;;;;;;;23.07;17.53;;;;;;;2.47;69.88;95152.13;4933920;29;20229;-88
2024/01/19 09:35:27;;;;;;;12.03;7.87;;;;;;;2.38;68.43;95084.34;4971993;28;20208;-88
2024/01/19 09:38:09;;;;;;;10.10;7.77;;;;;;;2.38;68.89;95097.06;4933161;28;20821;-87
2024/01/19 09:40:45;;;;;;;9.70;7.13;;;;;;;2.42;68.84;95111.88;4969601;28;20212;-88
2024/01/19 09:43:19;;;;;;;8.93;7.47;;;;;;;2.50;68.44;95116.28;4969592;28;20227;-88
2024/01/19 09:46:14;;;;;;;10.57;7.47;;;;;;;2.61;68.71;95130.56;4969430;28;20232;-88
2024/01/19 09:49:11;;;;;;;;;;;;;;;;;;;;;
2024/01/19 09:52:26;;;;;;;;;;;;;;;;;;;;;
2024/01/19 09:54:59;;;;;;;9.97;7.77;;;;;;;2.75;68.37;95135.97;4968957;28;20222;-87
2024/01/19 09:57:36;;;;;;;10.33;7.63;;;;;;;2.72;67.58;95112.56;4970819;28;20208;-88
2024/01/19 10:00:09;;;;;;;9.83;7.60;;;;;;;2.71;68.40;95131.31;4971437;28;20200;-86
2024/01/19 10:06:29;;;;;;;;;;;;;;;;;;;;;
2024/01/19 10:08:57;;;;;;;11.10;7.17;;;;;;;2.73;69.42;95203.13;4967893;28;20196;-88
2024/01/19 10:18:09;;;;;;;10.53;7.67;;;;;;;2.76;69.29;95202.88;4954641;28;20208;-88
2024/01/19 10:20:40;;;;;;;8.30;7.27;;;;;;;2.80;68.89;95198.31;4970419;28;20224;-88
2024/01/19 10:23:30;;;;;;;9.67;7.87;;;;;;;2.74;68.73;95189.50;4972591;28;20282;-87
2024/01/19 10:26:16;;;;;;;27.47;19.17;;;;;;;2.76;68.55;95185.06;4971805;28;20606;-87
2024/01/19 10:29:10;;;;;;;11.57;8.50;;;;;;;2.74;68.06;95164.06;4970353;28;20189;-88
2024/01/19 10:32:05;;;;;;;9.70;7.50;;;;;;;2.64;68.08;95150.59;4968216;28;20228;-88
2024/01/19 10:35:36;;;;;;;;;;;;;;;;;;;;;
2024/01/19 10:38:21;;;;;;;12.30;8.73;;;;;;;2.66;68.39;95180.03;4897982;28;20231;-87
2024/01/19 10:41:00;;;;;;;12.00;8.50;;;;;;;2.72;68.84;95192.16;4972186;28;20199;-87
2024/01/19 10:43:32;;;;;;;13.57;8.90;;;;;;;2.74;68.12;95162.34;4970443;28;20251;-87
2024/01/19 10:45:59;;;;;;;13.43;8.77;;;;;;;2.86;67.59;95144.38;4970059;28;20224;-87
2024/01/19 10:48:30;;;;;;;12.27;9.30;;;;;;;2.91;67.70;95152.38;4969938;28;20208;-85
2024/01/19 10:51:14;;;;;;;11.33;8.87;;;;;;;2.92;67.11;95146.34;4969964;28;20784;-88
2024/01/19 10:53:44;;;;;;;9.50;8.40;;;;;;;2.93;67.16;95130.16;4969949;28;20200;-87
2024/01/19 10:56:18;;;;;;;12.07;8.93;;;;;;;3.03;67.47;95149.53;4975807;28;20220;-86
2024/01/19 10:59:05;;;;;;;;;;;;;;;;;;;;;
2024/01/19 11:01:33;;;;;;;11.90;8.77;;;;;;;3.09;67.08;95128.59;4989368;28;20563;-86
2024/01/19 11:04:05;;;;;;;10.97;9.00;;;;;;;3.25;68.35;95214.47;4988676;28;20220;-86
2024/01/19 11:06:34;;;;;;;11.83;9.03;;;;;;;3.19;67.24;95148.09;4989941;28;20204;-86
2024/01/19 11:09:41;;;;;;;12.03;8.70;;;;;;;3.01;67.27;95130.25;4989014;28;20190;-87
2024/01/19 11:12:22;;;;;;;11.70;8.63;;;;;;;2.93;66.90;95117.44;4973519;28;20230;-85
2024/01/19 11:17:56;;;;;;;10.13;8.70;;;;;;;2.94;67.32;95157.19;4941088;28;20232;-87
2024/01/19 11:20:52;;;;;;;10.53;9.03;;;;;;;2.91;66.91;95147.28;4971205;28;20239;-87
2024/01/19 11:23:31;;;;;;;10.83;8.97;;;;;;;2.85;67.35;95183.44;4970790;28;20837;-86
2024/01/19 11:32:22;;;;;;;10.90;9.33;;;;;;;2.76;68.33;95211.28;4946951;28;20734;-86
2024/01/19 11:37:55;;;;;;;12.67;9.77;;;;;;;2.74;68.58;95242.88;4971912;28;20207;-86
2024/01/19 11:40:51;;;;;;;12.83;9.80;;;;;;;2.69;67.80;95194.97;4972877;28;20223;-88
2024/01/19 11:43:37;;;;;;;18.63;13.33;;;;;;;2.60;68.94;95250.91;4971696;28;20595;-86
2024/01/19 11:46:35;;;;;;;32.97;23.70;;;;;;;2.60;69.25;95278.88;4971102;28;20632;-86
2024/01/19 11:55:00;;;;;;;15.53;10.80;;;;;;;2.70;68.52;95255.03;4971625;28;20231;-87
2024/01/19 11:57:30;;;;;;;14.47;10.47;;;;;;;2.63;68.68;95235.41;4970489;28;20196;-87
2024/01/19 12:00:29;;;;;;;15.13;10.83;;;;;;;2.66;68.32;95238.47;4970374;28;20564;-87
2024/01/19 12:03:20;;;;;;;13.57;10.87;;;;;;;2.62;68.07;95233.81;4962403;28;20228;-87
2024/01/19 12:06:04;;;;;;;13.63;10.77;;;;;;;2.74;68.15;95230.16;4971022;28;20284;-87
2024/01/19 12:09:15;;;;;;;13.30;10.10;;;;;;;2.84;67.79;95197.91;4970788;28;20226;-87
2024/01/19 12:11:47;;;;;;;12.63;10.10;;;;;;;3.02;67.61;95197.97;4969503;28;20216;-87
2024/01/19 12:14:19;;;;;;;13.03;9.90;;;;;;;3.21;67.12;95190.25;4970849;28;20204;-87
2024/01/19 12:16:59;;;;;;;12.70;8.43;;;;;;;3.60;83.11;95714.41;4968945;28;20292;-87
2024/01/19 12:19:27;;;;;;;12.97;8.87;;;;;;;4.01;82.84;95761.81;4973080;28;20292;-86
2024/01/19 12:22:04;;;;;;;9.20;8.07;;;;;;;4.07;66.91;95139.69;4977313;28;20254;-87
2024/01/19 12:25:13;;;;;;;10.77;9.30;;;;;;;4.22;64.40;94982.84;4982910;28;20291;-87
2024/01/19 12:27:40;;;;;;;24.60;16.03;;;;;;;4.48;64.23;94954.72;4912942;28;20845;-88
2024/01/19 12:37:02;;;;;;;9.87;8.63;;;;;;;5.14;60.86;94796.53;4956921;28;20200;-86
2024/01/19 12:39:29;;;;;;;9.13;8.13;;;;;;;4.83;59.38;94689.28;4977639;28;20230;-86
2024/01/19 12:42:13;;;;;;;8.93;7.70;;;;;;;4.83;59.01;94679.06;4986793;28;20227;-86
2024/01/19 12:44:43;;;;;;;8.73;7.40;;;;;;;4.96;58.75;94665.03;4979898;28;20219;-87
2024/01/19 12:47:14;;;;;;;21.60;16.57;;;;;;;5.01;58.47;94645.72;4982390;28;20212;-83
2024/01/19 12:50:11;;;;;;;11.80;9.17;;;;;;;5.08;57.65;94587.97;4993420;28;20252;-87
2024/01/19 12:52:49;;;;;;;8.30;7.40;;;;;;;5.03;58.54;94637.88;4986651;28;20313;-87
2024/01/19 12:55:29;;;;;;;10.10;8.10;;;;;;;4.91;57.69;94583.91;4992231;28;20263;-86
2024/01/19 13:05:18;;;;;;;10.27;7.60;;;;;;;5.23;56.23;94562.53;4908214;29;20291;-87
2024/01/19 13:11:31;;;;;;;9.10;7.43;;;;;;;5.15;55.25;94504.72;4969286;28;20300;-87
2024/01/19 13:14:27;;;;;;;9.00;7.73;;;;;;;4.88;55.72;94548.53;4973283;28;20208;-85
2024/01/19 13:17:27;;;;;;;8.97;7.30;;;;;;;4.54;56.68;94568.44;4972732;28;20258;-84
2024/01/19 13:37:34;;;;;;;10.43;8.17;;;;;;;3.50;61.15;94891.56;4995235;28;20264;-87
2024/01/19 13:45:48;;;;;;;12.07;9.80;;;;;;;3.47;63.05;95055.50;4997806;28;20577;-86
2024/01/19 13:48:45;;;;;;;12.00;10.33;;;;;;;3.59;62.83;95048.47;4995476;28;20709;-87
2024/01/19 13:51:40;;;;;;;13.47;10.20;;;;;;;3.83;62.90;95061.38;4965427;28;20229;-86
2024/01/19 13:54:09;;;;;;;13.13;9.93;;;;;;;4.11;62.61;95062.84;4992349;28;20203;-87
2024/01/19 13:57:04;;;;;;;13.57;10.10;;;;;;;4.30;62.29;95048.31;4997323;28;20285;-86
2024/01/19 14:02:53;;;;;;;13.27;10.83;;;;;;;3.99;60.91;94952.00;4987309;28;20215;-86
2024/01/19 14:05:50;;;;;;;12.70;10.50;;;;;;;4.02;61.56;94989.09;4990812;28;20684;-87
2024/01/19 14:11:43;;;;;;;13.30;10.00;;;;;;;3.78;62.15;95033.81;4894689;29;20227;-88
2024/01/19 14:14:41;;;;;;;11.13;9.77;;;;;;;3.93;62.27;95041.72;4915961;28;20208;-86
2024/01/19 14:17:21;;;;;;;11.57;9.67;;;;;;;4.25;61.35;95028.34;4971566;28;20210;-89
2024/01/19 14:23:30;;;;;;;12.23;9.90;;;;;;;4.48;59.77;94939.44;4967632;28;20235;-86
2024/01/19 14:26:35;;;;;;;12.30;9.97;;;;;;;4.60;59.22;94907.63;5011185;28;20633;-86
2024/01/19 14:32:02;;;;;;;;;;;;;;;;;;;;;
2024/01/19 14:34:49;;;;;;;12.10;10.30;;;;;;;4.93;58.27;94865.09;4993259;28;20214;-86
2024/01/19 14:37:40;;;;;;;10.03;8.90;;;;;;;5.04;57.29;94802.75;5010439;28;20199;-85
2024/01/19 14:46:03;;;;;;;13.53;11.27;;;;;;;4.73;56.61;94728.69;5007318;28;20298;-86
2024/01/19 14:48:40;;;;;;;10.67;9.53;;;;;;;4.45;56.86;94738.41;5010609;28;20223;-86
2024/01/19 14:51:18;;;;;;;11.43;9.40;;;;;;;4.12;56.95;94768.97;5009279;28;20740;-87
2024/01/19 14:53:48;;;;;;;11.57;9.80;;;;;;;3.97;58.02;94806.19;5011064;28;20702;-86
2024/01/19 14:56:20;;;;;;;11.97;9.37;;;;;;;3.71;57.84;94798.63;4999112;28;20195;-85